createdAt,value
2019-05-28T00:01:14.538Z,13.40
2019-05-28T00:03:59.031Z,13.40
2019-05-28T00:06:43.472Z,13.40
2019-05-28T00:09:27.869Z,13.40
2019-05-28T00:12:01.025Z,13.30
2019-05-28T00:14:45.038Z,13.30
2019-05-28T00:17:28.827Z,13.30
2019-05-28T00:20:01.225Z,13.30
2019-05-28T00:22:44.988Z,13.30
2019-05-28T00:25:29.525Z,13.20
2019-05-28T00:28:14.839Z,13.20
2019-05-28T00:30:59.406Z,13.20
2019-05-28T00:33:43.364Z,13.20
2019-05-28T00:36:27.374Z,13.10
2019-05-28T00:39:11.200Z,13.10
2019-05-28T00:41:55.675Z,13.10
2019-05-28T00:44:39.966Z,13.10
2019-05-28T00:47:24.265Z,13.10
2019-05-28T00:50:09.687Z,13.10
2019-05-28T00:52:54.090Z,13.10
2019-05-28T00:55:39.589Z,13.00
2019-05-28T00:58:23.879Z,13.00
2019-05-28T01:01:07.436Z,12.90
2019-05-28T01:03:51.946Z,12.90
2019-05-28T01:06:35.772Z,12.90
2019-05-28T01:09:20.206Z,12.90
2019-05-28T01:12:04.674Z,12.80
2019-05-28T01:14:48.534Z,12.80
2019-05-28T01:17:32.789Z,12.80
2019-05-28T01:20:17.226Z,12.70
2019-05-28T01:23:02.824Z,12.70
2019-05-28T01:25:47.383Z,12.70
2019-05-28T01:28:33.335Z,12.70
2019-05-28T01:31:17.517Z,12.60
2019-05-28T01:34:03.478Z,12.60
2019-05-28T01:36:36.054Z,12.60
2019-05-28T01:39:20.142Z,12.60
2019-05-28T01:42:04.082Z,12.50
2019-05-28T01:44:48.583Z,12.50
2019-05-28T01:47:35.012Z,12.50
2019-05-28T01:50:19.539Z,12.40
2019-05-28T01:53:04.335Z,12.40
2019-05-28T01:55:48.458Z,12.40
2019-05-28T01:58:34.265Z,12.40
2019-05-28T02:01:18.277Z,12.30
2019-05-28T02:04:02.797Z,12.20
2019-05-28T02:06:46.692Z,12.30
2019-05-28T02:09:31.103Z,12.20
2019-05-28T02:12:16.132Z,12.20
2019-05-28T02:15:00.943Z,12.20
2019-05-28T02:17:46.970Z,12.20
2019-05-28T02:20:31.143Z,12.10
2019-05-28T02:23:16.283Z,12.10
2019-05-28T02:26:01.231Z,12.10
2019-05-28T02:28:44.808Z,12.10
2019-05-28T02:36:56.202Z,12.20
2019-05-28T02:39:41.911Z,12.10
2019-05-28T02:42:26.418Z,12.10
2019-05-28T02:45:11.110Z,12.10
2019-05-28T02:47:55.151Z,12.00
2019-05-28T02:54:38.280Z,11.90
2019-05-28T02:57:22.876Z,11.90
2019-05-28T03:00:08.263Z,11.90
2019-05-28T03:02:51.880Z,11.80
2019-05-28T03:05:35.890Z,11.80
2019-05-28T03:08:20.239Z,11.80
2019-05-28T03:11:04.755Z,11.80
2019-05-28T03:13:50.180Z,11.80
2019-05-28T03:16:34.891Z,11.80
2019-05-28T03:19:19.607Z,11.80
2019-05-28T03:22:03.275Z,11.80
2019-05-28T03:24:56.919Z,11.80
2019-05-28T03:27:40.735Z,11.80
2019-05-28T03:30:24.748Z,11.80
2019-05-28T03:33:08.655Z,11.80
2019-05-28T03:35:52.959Z,11.80
2019-05-28T03:38:37.283Z,11.70
2019-05-28T03:41:21.805Z,11.80
2019-05-28T03:44:05.498Z,11.80
2019-05-28T03:46:49.987Z,11.80
2019-05-28T03:49:33.696Z,11.90
2019-05-28T03:52:06.557Z,11.90
2019-05-28T03:54:50.971Z,11.90
2019-05-28T03:57:36.285Z,11.90
2019-05-28T04:00:20.133Z,11.90
2019-05-28T04:03:03.890Z,12.00
2019-05-28T04:05:50.029Z,12.00
2019-05-28T04:08:34.555Z,12.00
2019-05-28T04:11:19.041Z,12.00
2019-05-28T04:14:03.700Z,12.00
2019-05-28T04:16:47.727Z,12.00
2019-05-28T04:19:31.592Z,12.00
2019-05-28T04:22:15.687Z,12.00
2019-05-28T04:25:00.184Z,12.00
2019-05-28T04:27:43.645Z,12.10
2019-05-28T04:30:27.263Z,12.20
2019-05-28T04:32:59.645Z,12.20
2019-05-28T04:35:43.979Z,12.20
2019-05-28T04:38:27.950Z,12.30
2019-05-28T04:41:13.352Z,12.30
2019-05-28T04:43:57.925Z,12.30
2019-05-28T04:46:42.072Z,12.40
2019-05-28T04:49:14.361Z,12.30
2019-05-28T04:52:05.213Z,12.40
2019-05-28T04:57:54.661Z,12.40
2019-05-28T05:00:38.881Z,12.50
2019-05-28T05:03:22.894Z,12.50
2019-05-28T05:06:09.184Z,12.50
2019-05-28T05:08:41.484Z,12.50
2019-05-28T05:11:25.122Z,12.60
2019-05-28T05:14:09.295Z,12.70
2019-05-28T05:16:53.442Z,12.90
2019-05-28T05:19:37.170Z,13.20
2019-05-28T05:22:21.049Z,13.50
2019-05-28T05:25:05.332Z,13.70
2019-05-28T05:27:51.565Z,13.90
2019-05-28T05:30:35.372Z,14.10
2019-05-28T05:36:24.047Z,14.40
2019-05-28T05:39:08.474Z,14.50
2019-05-28T05:41:52.658Z,14.50
2019-05-28T05:44:36.589Z,14.50
2019-05-28T05:47:20.676Z,14.50
2019-05-28T05:50:04.563Z,14.40
2019-05-28T05:52:48.368Z,14.40
2019-05-28T05:55:33.170Z,14.30
2019-05-28T05:58:21.363Z,14.20
2019-05-28T06:01:05.196Z,14.30
2019-05-28T06:03:48.871Z,14.50
2019-05-28T06:06:32.629Z,14.30
2019-05-28T06:09:17.200Z,14.20
2019-05-28T06:12:01.020Z,14.10
2019-05-28T06:14:46.424Z,14.10
2019-05-28T06:17:31.241Z,14.10
2019-05-28T06:20:15.562Z,13.90
2019-05-28T06:22:59.427Z,13.90
2019-05-28T06:25:43.712Z,14.20
2019-05-28T06:28:27.477Z,14.80
2019-05-28T06:31:11.791Z,15.30
2019-05-28T06:33:57.429Z,15.30
2019-05-28T06:36:40.981Z,15.20
2019-05-28T06:39:25.511Z,14.90
2019-05-28T06:42:09.291Z,14.90
2019-05-28T06:44:54.180Z,14.80
2019-05-28T06:47:38.568Z,14.90
2019-05-28T06:50:23.128Z,14.90
2019-05-28T06:53:07.431Z,14.70
2019-05-28T06:58:54.460Z,15.10
2019-05-28T07:01:38.012Z,15.90
2019-05-28T07:04:32.179Z,16.40
2019-05-28T07:07:08.829Z,16.40
2019-05-28T07:09:52.846Z,16.10
2019-05-28T07:12:38.087Z,15.80
2019-05-28T07:15:23.706Z,15.70
2019-05-28T07:18:07.900Z,15.50
2019-05-28T07:20:52.060Z,15.80
2019-05-28T07:23:24.646Z,16.40
2019-05-28T07:28:55.674Z,17.30
2019-05-28T07:31:39.459Z,17.80
2019-05-28T07:34:30.744Z,17.80
2019-05-28T07:37:12.818Z,17.50
2019-05-28T07:39:57.093Z,17.60
2019-05-28T07:42:43.423Z,17.90
2019-05-28T07:45:27.827Z,17.90
2019-05-28T07:48:13.639Z,17.80
2019-05-28T07:50:57.969Z,18.30
2019-05-28T07:53:44.225Z,18.70
2019-05-28T07:56:28.166Z,18.80
2019-05-28T07:59:12.351Z,18.60
2019-05-28T08:01:57.051Z,18.40
2019-05-28T08:04:47.156Z,18.00
2019-05-28T08:07:26.247Z,18.30
2019-05-28T08:10:10.391Z,18.40
2019-05-28T08:12:54.029Z,17.80
2019-05-28T08:15:38.440Z,18.10
2019-05-28T08:18:23.020Z,18.00
2019-05-28T08:21:06.849Z,17.60
2019-05-28T08:23:51.335Z,17.50
2019-05-28T08:26:34.949Z,18.10
2019-05-28T08:29:20.658Z,18.60
2019-05-28T08:32:04.907Z,19.20
2019-05-28T08:35:04.151Z,18.90
2019-05-28T08:37:36.095Z,19.20
2019-05-28T08:40:22.282Z,20.20
2019-05-28T08:43:05.967Z,20.00
2019-05-28T08:45:49.565Z,19.50
2019-05-28T08:48:33.628Z,19.20
2019-05-28T08:51:17.474Z,18.40
2019-05-28T08:54:01.973Z,17.80
2019-05-28T08:56:46.433Z,17.60
2019-05-28T08:59:31.721Z,17.50
2019-05-28T09:02:27.030Z,17.90
2019-05-28T09:05:01.389Z,18.40
2019-05-28T09:07:46.744Z,18.80
2019-05-28T09:10:30.701Z,18.70
2019-05-28T09:13:15.010Z,18.20
2019-05-28T09:15:59.226Z,17.80
2019-05-28T09:18:43.078Z,17.50
2019-05-28T09:21:26.953Z,17.30
2019-05-28T09:24:10.925Z,17.10
2019-05-28T09:26:55.163Z,16.70
2019-05-28T09:29:39.299Z,16.60
2019-05-28T09:32:23.202Z,16.80
2019-05-28T09:35:07.383Z,17.20
2019-05-28T09:37:51.819Z,17.60
2019-05-28T09:40:49.218Z,17.60
2019-05-28T09:43:21.318Z,17.50
2019-05-28T09:46:05.362Z,17.60
2019-05-28T09:48:51.734Z,17.70
2019-05-28T09:51:36.328Z,17.50
2019-05-28T09:54:19.971Z,17.90
2019-05-28T09:57:03.679Z,18.10
2019-05-28T09:59:58.338Z,18.20
2019-05-28T10:02:43.152Z,18.50
2019-05-28T10:05:27.010Z,18.50
2019-05-28T10:08:11.310Z,18.90
2019-05-28T10:10:55.456Z,19.10
2019-05-28T10:13:41.469Z,19.50
2019-05-28T10:16:28.449Z,19.10
2019-05-28T10:19:00.869Z,19.20
2019-05-28T10:21:44.535Z,19.80
2019-05-28T10:24:29.332Z,20.40
2019-05-28T10:27:13.939Z,20.40
2019-05-28T10:29:58.934Z,20.20
2019-05-28T10:32:42.810Z,19.80
2019-05-28T10:35:26.943Z,19.80
2019-05-28T10:38:16.019Z,20.10
2019-05-28T10:40:57.295Z,20.20
2019-05-28T10:43:41.962Z,19.70
2019-05-28T10:46:25.564Z,19.40
2019-05-28T10:49:10.506Z,19.60
2019-05-28T10:51:55.161Z,19.80
2019-05-28T10:54:38.904Z,19.40
2019-05-28T10:57:23.270Z,19.60
2019-05-28T10:59:55.669Z,20.00
2019-05-28T11:02:39.361Z,21.00
2019-05-28T11:05:23.288Z,21.00
2019-05-28T11:08:07.911Z,20.20
2019-05-28T11:10:52.256Z,19.10
2019-05-28T11:13:52.055Z,19.00
2019-05-28T11:16:24.986Z,18.50
2019-05-28T11:19:08.961Z,18.40
2019-05-28T11:21:53.066Z,19.00
2019-05-28T11:24:36.954Z,19.70
2019-05-28T11:27:23.959Z,19.90
2019-05-28T11:30:08.269Z,19.70
2019-05-28T11:32:52.318Z,19.70
2019-05-28T11:35:36.791Z,19.50
2019-05-28T11:38:20.863Z,19.10
2019-05-28T11:41:05.766Z,19.40
2019-05-28T11:43:51.041Z,20.30
2019-05-28T11:46:35.284Z,20.90
2019-05-28T11:49:19.234Z,21.20
2019-05-28T11:52:04.084Z,20.50
2019-05-28T11:54:48.559Z,19.70
2019-05-28T11:57:34.511Z,19.10
2019-05-28T12:00:18.508Z,19.00
2019-05-28T12:03:04.135Z,18.60
2019-05-28T12:05:48.360Z,18.80
2019-05-28T12:08:21.422Z,19.00
2019-05-28T12:11:05.215Z,19.30
2019-05-28T12:13:49.212Z,19.10
2019-05-28T12:16:33.492Z,18.60
2019-05-28T12:19:17.779Z,18.40
2019-05-28T12:22:01.828Z,18.00
2019-05-28T12:24:45.542Z,18.10
2019-05-28T12:27:30.322Z,17.90
2019-05-28T12:30:17.982Z,18.00
2019-05-28T12:33:00.655Z,18.10
2019-05-28T12:35:45.584Z,18.20
2019-05-28T12:38:29.459Z,18.60
2019-05-28T12:41:13.981Z,18.60
2019-05-28T12:43:59.813Z,18.90
2019-05-28T12:46:44.202Z,18.60
2019-05-28T12:49:29.660Z,18.20
2019-05-28T12:52:15.140Z,18.00
2019-05-28T12:54:58.871Z,18.00
2019-05-28T12:57:42.725Z,18.00
2019-05-28T13:00:29.491Z,18.10
2019-05-28T13:03:13.901Z,18.20
2019-05-28T13:05:58.379Z,18.70
2019-05-28T13:08:30.707Z,18.70
2019-05-28T13:11:15.036Z,18.30
2019-05-28T13:13:59.621Z,18.30
2019-05-28T13:16:43.635Z,18.30
2019-05-28T13:19:27.486Z,18.00
2019-05-28T13:22:12.131Z,17.70
2019-05-28T13:24:56.673Z,17.40
2019-05-28T13:27:41.223Z,17.80
2019-05-28T13:30:25.452Z,17.70
2019-05-28T13:33:10.156Z,17.70
2019-05-28T13:35:53.813Z,17.60
2019-05-28T13:38:42.335Z,17.40
2019-05-28T13:41:24.342Z,17.40
2019-05-28T13:44:08.408Z,17.50
2019-05-28T13:46:54.700Z,17.50
2019-05-28T13:49:38.439Z,17.30
2019-05-28T13:52:22.486Z,17.20
2019-05-28T13:54:54.869Z,16.90
2019-05-28T13:57:51.643Z,16.90
2019-05-28T14:00:36.373Z,17.00
2019-05-28T14:03:21.025Z,17.10
2019-05-28T14:06:05.520Z,16.70
2019-05-28T14:08:50.785Z,16.10
2019-05-28T14:11:35.246Z,15.80
2019-05-28T14:14:21.124Z,16.10
2019-05-28T14:17:05.221Z,16.50
2019-05-28T14:19:49.964Z,16.60
2019-05-28T14:22:34.804Z,16.50
2019-05-28T14:25:19.340Z,16.30
2019-05-28T14:28:03.465Z,16.30
2019-05-28T14:30:59.200Z,16.40
2019-05-28T14:33:33.285Z,16.40
2019-05-28T14:36:18.913Z,16.40
2019-05-28T14:39:04.216Z,16.30
2019-05-28T14:41:48.361Z,16.30
2019-05-28T14:44:33.124Z,16.20
2019-05-28T14:47:17.991Z,16.00
2019-05-28T14:50:02.769Z,15.90
2019-05-28T14:52:47.131Z,15.70
2019-05-28T14:55:31.516Z,15.70
2019-05-28T14:58:18.163Z,15.90
2019-05-28T15:01:02.972Z,15.90
2019-05-28T15:03:47.317Z,15.80
2019-05-28T15:06:33.332Z,15.80
2019-05-28T15:09:21.360Z,15.80
2019-05-28T15:12:03.937Z,15.70
2019-05-28T15:14:48.303Z,15.50
2019-05-28T15:17:32.140Z,15.40
2019-05-28T15:20:15.818Z,15.50
2019-05-28T15:23:00.217Z,15.60
2019-05-28T15:25:44.738Z,15.60
2019-05-28T15:28:28.816Z,15.60
2019-05-28T15:31:13.022Z,15.50
2019-05-28T15:33:45.322Z,15.50
2019-05-28T15:36:44.779Z,15.30
2019-05-28T15:39:39.646Z,15.30
2019-05-28T15:42:31.326Z,15.30
2019-05-28T15:45:15.476Z,15.10
2019-05-28T15:48:00.253Z,15.00
2019-05-28T15:50:44.628Z,14.90
2019-05-28T15:53:28.634Z,14.70
2019-05-28T15:56:13.386Z,14.60
2019-05-28T15:58:57.904Z,14.70
2019-05-28T16:01:41.613Z,14.80
2019-05-28T16:04:25.786Z,14.70
2019-05-28T16:07:11.420Z,14.70
2019-05-28T16:09:56.769Z,14.80
2019-05-28T16:12:43.295Z,14.80
2019-05-28T16:15:27.153Z,14.80
2019-05-28T16:18:11.587Z,14.80
2019-05-28T16:21:00.014Z,14.90
2019-05-28T16:23:43.972Z,14.90
2019-05-28T16:26:27.661Z,14.80
2019-05-28T16:29:11.960Z,14.70
2019-05-28T16:31:56.586Z,14.50
2019-05-28T16:34:40.339Z,14.50
2019-05-28T16:37:24.882Z,14.40
2019-05-28T16:40:15.637Z,14.50
2019-05-28T16:42:58.766Z,14.40
2019-05-28T16:45:43.318Z,14.30
2019-05-28T16:48:27.637Z,14.30
2019-05-28T16:51:12.329Z,14.30
2019-05-28T16:53:56.890Z,14.20
2019-05-28T16:56:45.729Z,14.20
2019-05-28T16:59:29.527Z,14.10
2019-05-28T17:02:13.956Z,14.10
2019-05-28T17:04:58.527Z,14.10
2019-05-28T17:07:43.043Z,14.10
2019-05-28T17:10:32.871Z,14.10
2019-05-28T17:13:13.949Z,14.10
2019-05-28T17:15:58.210Z,14.00
2019-05-28T17:18:42.026Z,13.90
2019-05-28T17:21:30.038Z,13.90
2019-05-28T17:24:14.196Z,13.80
2019-05-28T17:27:03.224Z,13.80
2019-05-28T17:29:50.724Z,13.80
2019-05-28T17:32:33.974Z,13.70
2019-05-28T17:35:18.501Z,13.60
2019-05-28T17:38:02.897Z,13.60
2019-05-28T17:40:48.769Z,13.60
2019-05-28T17:43:32.083Z,13.40
2019-05-28T17:46:19.780Z,13.30
2019-05-28T17:49:04.073Z,13.30
2019-05-28T17:51:49.743Z,13.20
2019-05-28T17:54:35.163Z,13.10
2019-05-28T17:57:19.968Z,13.10
2019-05-28T18:00:07.164Z,13.10
2019-05-28T18:02:51.251Z,13.10
2019-05-28T18:05:35.119Z,13.00
2019-05-28T18:08:19.223Z,13.00
2019-05-28T18:11:04.744Z,13.00
2019-05-28T18:13:49.222Z,12.90
2019-05-28T18:16:33.186Z,12.90
2019-05-28T18:19:17.217Z,12.90
2019-05-28T18:22:00.682Z,12.90
2019-05-28T18:24:46.117Z,12.90
2019-05-28T18:27:20.072Z,12.90
2019-05-28T18:30:04.629Z,12.90
2019-05-28T18:32:49.242Z,12.80
2019-05-28T18:35:33.731Z,12.70
2019-05-28T18:38:06.096Z,12.70
2019-05-28T18:40:50.717Z,12.60
2019-05-28T18:43:35.230Z,12.60
2019-05-28T18:46:23.472Z,12.60
2019-05-28T18:49:07.219Z,12.70
2019-05-28T18:51:51.638Z,12.60
2019-05-28T18:54:36.040Z,12.60
2019-05-28T18:57:20.166Z,12.50
2019-05-28T19:00:04.679Z,12.40
2019-05-28T19:02:49.138Z,12.40
2019-05-28T19:05:32.822Z,12.40
2019-05-28T19:08:17.706Z,12.40
2019-05-28T19:11:01.618Z,12.30
2019-05-28T19:13:46.230Z,12.30
2019-05-28T19:16:31.028Z,12.20
2019-05-28T19:19:15.743Z,12.10
2019-05-28T19:22:03.449Z,12.10
2019-05-28T19:24:46.990Z,12.00
2019-05-28T19:27:31.595Z,12.00
2019-05-28T19:30:05.754Z,12.00
2019-05-28T19:32:49.594Z,12.00
2019-05-28T19:38:06.435Z,12.00
2019-05-28T19:40:50.542Z,11.90
2019-05-28T19:43:34.677Z,12.00
2019-05-28T19:46:19.289Z,11.90
2019-05-28T19:49:03.558Z,11.80
2019-05-28T19:51:48.108Z,11.70
2019-05-28T19:54:35.454Z,11.60
2019-05-28T19:57:19.705Z,11.60
2019-05-28T19:59:52.001Z,11.60
2019-05-28T20:02:35.625Z,11.60
2019-05-28T20:05:19.147Z,11.50
2019-05-28T20:07:51.533Z,11.50
2019-05-28T20:10:39.815Z,11.50
2019-05-28T20:13:23.676Z,11.50
2019-05-28T20:16:08.173Z,11.50
2019-05-28T20:18:53.663Z,11.50
2019-05-28T20:21:37.242Z,11.40
2019-05-28T20:24:45.544Z,11.40
2019-05-28T20:27:47.555Z,11.50
2019-05-28T20:30:32.567Z,11.50
2019-05-28T20:33:16.580Z,11.50
2019-05-28T20:36:01.837Z,11.50
2019-05-28T20:38:46.396Z,11.40
2019-05-28T20:41:30.616Z,11.30
2019-05-28T20:44:14.372Z,11.30
2019-05-28T20:46:58.738Z,11.30
2019-05-28T20:49:42.951Z,11.30
2019-05-28T20:52:27.045Z,11.20
2019-05-28T20:55:11.513Z,11.20
2019-05-28T20:57:56.055Z,11.20
2019-05-28T21:00:44.211Z,11.20
2019-05-28T21:03:28.815Z,11.20
2019-05-28T21:06:13.262Z,11.20
2019-05-28T21:08:58.286Z,11.00
2019-05-28T21:11:42.588Z,10.90
2019-05-28T21:14:27.461Z,10.90
2019-05-28T21:17:12.369Z,10.90
2019-05-28T21:19:57.384Z,10.90
2019-05-28T21:22:41.365Z,10.80
2019-05-28T21:25:26.713Z,10.90
2019-05-28T21:28:11.630Z,10.90
2019-05-28T21:30:56.767Z,10.90
2019-05-28T21:33:40.761Z,10.80
2019-05-28T21:36:24.683Z,10.90
2019-05-28T21:39:09.793Z,10.80
2019-05-28T21:41:58.300Z,10.80
2019-05-28T21:44:41.283Z,10.80
2019-05-28T21:47:25.640Z,10.80
2019-05-28T21:49:59.471Z,10.80
2019-05-28T21:52:57.418Z,10.80
2019-05-28T21:55:45.146Z,10.70
2019-05-28T21:58:29.848Z,10.70
2019-05-28T22:01:18.885Z,10.70
2019-05-28T22:04:03.627Z,10.70
2019-05-28T22:06:48.131Z,10.70
2019-05-28T22:09:31.891Z,10.70
2019-05-28T22:12:16.062Z,10.60
2019-05-28T22:15:02.243Z,10.60
2019-05-28T22:17:49.648Z,10.60
2019-05-28T22:20:33.712Z,10.60
2019-05-28T22:23:18.111Z,10.50
2019-05-28T22:26:03.017Z,10.50
2019-05-28T22:28:47.314Z,10.40
2019-05-28T22:31:32.407Z,10.50
2019-05-28T22:34:16.440Z,10.50
2019-05-28T22:37:00.383Z,10.50
2019-05-28T22:39:44.939Z,10.40
2019-05-28T22:42:28.824Z,10.40
2019-05-28T22:45:13.147Z,10.40
2019-05-28T22:47:57.312Z,10.40
2019-05-28T22:54:23.772Z,10.40
2019-05-28T23:00:17.765Z,10.30
2019-05-28T23:03:02.850Z,10.20
2019-05-28T23:05:47.256Z,10.20
2019-05-28T23:08:30.759Z,10.20
2019-05-28T23:11:14.627Z,10.20
2019-05-28T23:13:59.789Z,10.20
2019-05-28T23:16:43.652Z,10.10
2019-05-28T23:19:27.684Z,10.10
2019-05-28T23:22:11.640Z,10.10
2019-05-28T23:24:55.488Z,10.10
2019-05-28T23:27:39.778Z,10.10
2019-05-28T23:30:25.475Z,10.00
2019-05-28T23:33:12.321Z,10.00
2019-05-28T23:35:55.749Z,10.00
2019-05-28T23:38:39.717Z,10.00
2019-05-28T23:41:23.482Z,10.00
2019-05-28T23:44:07.570Z,10.00
2019-05-28T23:46:51.638Z,9.90
2019-05-28T23:49:38.324Z,9.90
2019-05-28T23:52:22.773Z,10.00
2019-05-28T23:55:07.698Z,10.00
2019-05-28T23:57:51.580Z,9.90
